sensor_id;sensor_type;location;lat;lon;timestamp;temperature;humidity
23715;DHT22;12036;50.858;4.472;2022-08-04T00:00:08;23.20;99.90
23715;DHT22;12036;50.858;4.472;2022-08-04T00:08:06;23.00;99.90
23715;DHT22;12036;50.858;4.472;2022-08-04T00:10:38;23.00;99.90
23715;DHT22;12036;50.858;4.472;2022-08-04T00:13:06;23.00;99.90
23715;DHT22;12036;50.858;4.472;2022-08-04T00:15:33;22.90;99.90
23715;DHT22;12036;50.858;4.472;2022-08-04T00:18:02;22.90;99.90
23715;DHT22;12036;50.858;4.472;2022-08-04T00:20:30;22.80;99.90
23715;DHT22;12036;50.858;4.472;2022-08-04T00:22:56;22.80;99.90
23715;DHT22;12036;50.858;4.472;2022-08-04T00:25:24;22.70;99.90
23715;DHT22;12036;50.858;4.472;2022-08-04T00:27:51;22.70;99.90
23715;DHT22;12036;50.858;4.472;2022-08-04T00:30:16;22.70;99.90
23715;DHT22;12036;50.858;4.472;2022-08-04T00:32:42;22.70;99.90
23715;DHT22;12036;50.858;4.472;2022-08-04T00:35:09;22.60;99.90
23715;DHT22;12036;50.858;4.472;2022-08-04T00:37:37;22.60;99.90
23715;DHT22;12036;50.858;4.472;2022-08-04T00:40:21;22.60;99.90
23715;DHT22;12036;50.858;4.472;2022-08-04T00:54:33;22.40;99.90
23715;DHT22;12036;50.858;4.472;2022-08-04T01:00:12;22.30;99.90
23715;DHT22;12036;50.858;4.472;2022-08-04T01:10:34;22.20;99.90
23715;DHT22;12036;50.858;4.472;2022-08-04T01:13:10;22.20;99.90
23715;DHT22;12036;50.858;4.472;2022-08-04T01:18:21;22.10;99.90
23715;DHT22;12036;50.858;4.472;2022-08-04T01:20:52;22.00;99.90
23715;DHT22;12036;50.858;4.472;2022-08-04T01:23:34;22.00;99.90
23715;DHT22;12036;50.858;4.472;2022-08-04T01:26:56;21.90;99.90
23715;DHT22;12036;50.858;4.472;2022-08-04T01:29:15;21.90;99.90
23715;DHT22;12036;50.858;4.472;2022-08-04T01:32:00;21.90;99.90
23715;DHT22;12036;50.858;4.472;2022-08-04T01:34:42;21.90;99.90
23715;DHT22;12036;50.858;4.472;2022-08-04T01:37:11;21.90;99.90
23715;DHT22;12036;50.858;4.472;2022-08-04T01:39:48;21.90;99.90
23715;DHT22;12036;50.858;4.472;2022-08-04T01:42:17;21.80;99.90
23715;DHT22;12036;50.858;4.472;2022-08-04T01:44:46;21.80;99.90
23715;DHT22;12036;50.858;4.472;2022-08-04T01:47:13;21.70;99.90
23715;DHT22;12036;50.858;4.472;2022-08-04T01:49:42;21.70;99.90
23715;DHT22;12036;50.858;4.472;2022-08-04T01:52:15;21.70;99.90
23715;DHT22;12036;50.858;4.472;2022-08-04T01:54:41;21.70;99.90
23715;DHT22;12036;50.858;4.472;2022-08-04T01:57:09;21.70;99.90
23715;DHT22;12036;50.858;4.472;2022-08-04T01:59:37;21.60;99.90
23715;DHT22;12036;50.858;4.472;2022-08-04T02:02:04;21.60;99.90
23715;DHT22;12036;50.858;4.472;2022-08-04T02:04:30;21.60;99.90
23715;DHT22;12036;50.858;4.472;2022-08-04T02:09:57;21.60;99.90
23715;DHT22;12036;50.858;4.472;2022-08-04T02:15:03;21.50;99.90
23715;DHT22;12036;50.858;4.472;2022-08-04T02:20:47;21.50;99.90
23715;DHT22;12036;50.858;4.472;2022-08-04T02:23:23;21.50;99.90
23715;DHT22;12036;50.858;4.472;2022-08-04T02:25:59;21.50;99.90
23715;DHT22;12036;50.858;4.472;2022-08-04T02:28:51;21.40;99.90
23715;DHT22;12036;50.858;4.472;2022-08-04T02:31:32;21.40;99.90
23715;DHT22;12036;50.858;4.472;2022-08-04T02:34:22;21.40;99.90
23715;DHT22;12036;50.858;4.472;2022-08-04T02:36:50;21.40;99.90
23715;DHT22;12036;50.858;4.472;2022-08-04T02:39:19;21.40;99.90
23715;DHT22;12036;50.858;4.472;2022-08-04T02:41:46;21.40;99.90
23715;DHT22;12036;50.858;4.472;2022-08-04T02:44:13;21.40;99.90
23715;DHT22;12036;50.858;4.472;2022-08-04T02:46:45;21.30;99.90
23715;DHT22;12036;50.858;4.472;2022-08-04T02:49:13;21.30;99.90
23715;DHT22;12036;50.858;4.472;2022-08-04T02:51:42;21.30;99.90
23715;DHT22;12036;50.858;4.472;2022-08-04T02:54:09;21.30;99.90
23715;DHT22;12036;50.858;4.472;2022-08-04T02:56:36;21.30;99.90
23715;DHT22;12036;50.858;4.472;2022-08-04T02:59:07;21.30;99.90
23715;DHT22;12036;50.858;4.472;2022-08-04T03:01:34;21.30;99.90
23715;DHT22;12036;50.858;4.472;2022-08-04T03:09:50;21.20;99.90
23715;DHT22;12036;50.858;4.472;2022-08-04T03:21:04;21.10;99.90
23715;DHT22;12036;50.858;4.472;2022-08-04T03:41:32;21.00;99.90
23715;DHT22;12036;50.858;4.472;2022-08-04T03:49:44;20.90;99.90
23715;DHT22;12036;50.858;4.472;2022-08-04T03:58:34;21.00;99.90
23715;DHT22;12036;50.858;4.472;2022-08-04T04:01:34;21.00;99.90
23715;DHT22;12036;50.858;4.472;2022-08-04T04:07:07;21.00;99.90
23715;DHT22;12036;50.858;4.472;2022-08-04T04:21:15;21.10;99.90
23715;DHT22;12036;50.858;4.472;2022-08-04T04:29:59;21.10;99.90
23715;DHT22;12036;50.858;4.472;2022-08-04T04:41:15;21.30;99.90
23715;DHT22;12036;50.858;4.472;2022-08-04T04:51:47;21.60;99.90
23715;DHT22;12036;50.858;4.472;2022-08-04T04:54:40;21.60;99.90
23715;DHT22;12036;50.858;4.472;2022-08-04T04:57:17;21.70;99.90
23715;DHT22;12036;50.858;4.472;2022-08-04T05:00:07;21.70;99.90
23715;DHT22;12036;50.858;4.472;2022-08-04T05:05:32;21.80;99.90
23715;DHT22;12036;50.858;4.472;2022-08-04T05:14:09;21.90;99.90
23715;DHT22;12036;50.858;4.472;2022-08-04T05:16:43;21.90;99.90
23715;DHT22;12036;50.858;4.472;2022-08-04T05:25:27;22.20;99.90
23715;DHT22;12036;50.858;4.472;2022-08-04T05:28:09;22.20;99.90
23715;DHT22;12036;50.858;4.472;2022-08-04T05:30:38;22.30;99.90
23715;DHT22;12036;50.858;4.472;2022-08-04T05:33:28;22.30;99.90
23715;DHT22;12036;50.858;4.472;2022-08-04T05:35:59;22.30;99.90
23715;DHT22;12036;50.858;4.472;2022-08-04T05:38:33;22.40;99.90
23715;DHT22;12036;50.858;4.472;2022-08-04T05:41:00;22.40;99.90
23715;DHT22;12036;50.858;4.472;2022-08-04T05:43:27;22.50;99.90
23715;DHT22;12036;50.858;4.472;2022-08-04T05:45:53;22.60;99.90
23715;DHT22;12036;50.858;4.472;2022-08-04T05:48:19;22.70;99.90
23715;DHT22;12036;50.858;4.472;2022-08-04T05:50:45;22.80;99.90
23715;DHT22;12036;50.858;4.472;2022-08-04T05:53:14;23.00;99.90
23715;DHT22;12036;50.858;4.472;2022-08-04T05:55:40;23.00;99.90
23715;DHT22;12036;50.858;4.472;2022-08-04T05:58:06;23.00;99.90
23715;DHT22;12036;50.858;4.472;2022-08-04T06:00:32;23.00;99.90
23715;DHT22;12036;50.858;4.472;2022-08-04T06:03:01;23.10;99.90
23715;DHT22;12036;50.858;4.472;2022-08-04T06:05:27;23.20;99.90
23715;DHT22;12036;50.858;4.472;2022-08-04T06:07:53;23.30;99.90
23715;DHT22;12036;50.858;4.472;2022-08-04T06:10:19;23.40;99.90
23715;DHT22;12036;50.858;4.472;2022-08-04T06:12:47;23.50;99.90
23715;DHT22;12036;50.858;4.472;2022-08-04T06:15:17;23.80;99.90
23715;DHT22;12036;50.858;4.472;2022-08-04T06:17:54;24.00;99.90
23715;DHT22;12036;50.858;4.472;2022-08-04T06:20:25;24.20;99.90
23715;DHT22;12036;50.858;4.472;2022-08-04T06:22:56;24.20;99.90
23715;DHT22;12036;50.858;4.472;2022-08-04T06:25:27;24.20;99.90
23715;DHT22;12036;50.858;4.472;2022-08-04T06:27:54;24.20;99.90
23715;DHT22;12036;50.858;4.472;2022-08-04T06:30:21;24.30;99.90
23715;DHT22;12036;50.858;4.472;2022-08-04T06:32:51;24.30;99.90
23715;DHT22;12036;50.858;4.472;2022-08-04T06:35:22;24.40;99.90
23715;DHT22;12036;50.858;4.472;2022-08-04T06:37:50;24.40;99.90
23715;DHT22;12036;50.858;4.472;2022-08-04T06:40:19;24.40;99.90
23715;DHT22;12036;50.858;4.472;2022-08-04T06:42:46;24.50;99.90
23715;DHT22;12036;50.858;4.472;2022-08-04T06:45:13;24.70;99.80
23715;DHT22;12036;50.858;4.472;2022-08-04T06:47:40;24.80;99.70
23715;DHT22;12036;50.858;4.472;2022-08-04T06:50:08;25.00;99.60
23715;DHT22;12036;50.858;4.472;2022-08-04T06:52:34;25.20;99.10
23715;DHT22;12036;50.858;4.472;2022-08-04T06:55:00;25.40;98.40
23715;DHT22;12036;50.858;4.472;2022-08-04T06:57:27;25.50;98.10
23715;DHT22;12036;50.858;4.472;2022-08-04T07:00:06;25.50;98.00
23715;DHT22;12036;50.858;4.472;2022-08-04T07:02:51;25.50;98.00
23715;DHT22;12036;50.858;4.472;2022-08-04T07:05:18;25.80;97.70
23715;DHT22;12036;50.858;4.472;2022-08-04T07:07:44;26.30;97.00
23715;DHT22;12036;50.858;4.472;2022-08-04T07:10:11;27.00;95.60
23715;DHT22;12036;50.858;4.472;2022-08-04T07:12:38;27.50;94.40
23715;DHT22;12036;50.858;4.472;2022-08-04T07:15:06;27.50;93.50
23715;DHT22;12036;50.858;4.472;2022-08-04T07:17:35;27.20;93.50
23715;DHT22;12036;50.858;4.472;2022-08-04T07:20:03;27.00;94.00
23715;DHT22;12036;50.858;4.472;2022-08-04T07:22:29;26.80;94.10
23715;DHT22;12036;50.858;4.472;2022-08-04T07:24:56;26.60;94.10
23715;DHT22;12036;50.858;4.472;2022-08-04T07:27:23;26.60;94.20
23715;DHT22;12036;50.858;4.472;2022-08-04T07:29:49;26.50;94.60
23715;DHT22;12036;50.858;4.472;2022-08-04T07:32:18;26.60;94.10
23715;DHT22;12036;50.858;4.472;2022-08-04T07:34:44;26.50;94.30
23715;DHT22;12036;50.858;4.472;2022-08-04T07:37:11;26.50;94.10
23715;DHT22;12036;50.858;4.472;2022-08-04T07:39:37;26.40;93.90
23715;DHT22;12036;50.858;4.472;2022-08-04T07:42:04;26.20;94.10
23715;DHT22;12036;50.858;4.472;2022-08-04T07:44:35;26.10;94.50
23715;DHT22;12036;50.858;4.472;2022-08-04T07:47:04;26.10;94.30
23715;DHT22;12036;50.858;4.472;2022-08-04T07:49:30;26.10;94.30
23715;DHT22;12036;50.858;4.472;2022-08-04T07:51:56;26.30;94.40
23715;DHT22;12036;50.858;4.472;2022-08-04T07:54:23;26.50;93.90
23715;DHT22;12036;50.858;4.472;2022-08-04T07:56:50;26.50;93.70
23715;DHT22;12036;50.858;4.472;2022-08-04T07:59:17;26.50;93.60
23715;DHT22;12036;50.858;4.472;2022-08-04T08:01:43;26.40;93.60
23715;DHT22;12036;50.858;4.472;2022-08-04T08:04:10;26.40;93.80
23715;DHT22;12036;50.858;4.472;2022-08-04T08:06:37;26.20;94.10
23715;DHT22;12036;50.858;4.472;2022-08-04T08:09:15;26.20;93.90
23715;DHT22;12036;50.858;4.472;2022-08-04T08:11:44;26.30;93.90
23715;DHT22;12036;50.858;4.472;2022-08-04T08:14:11;26.30;93.90
23715;DHT22;12036;50.858;4.472;2022-08-04T08:16:37;26.20;94.00
23715;DHT22;12036;50.858;4.472;2022-08-04T08:19:03;26.20;94.10
23715;DHT22;12036;50.858;4.472;2022-08-04T08:21:29;26.10;94.30
23715;DHT22;12036;50.858;4.472;2022-08-04T08:23:55;25.90;94.80
23715;DHT22;12036;50.858;4.472;2022-08-04T08:26:21;25.80;95.00
23715;DHT22;12036;50.858;4.472;2022-08-04T08:28:47;25.70;95.00
23715;DHT22;12036;50.858;4.472;2022-08-04T08:31:13;25.60;95.00
23715;DHT22;12036;50.858;4.472;2022-08-04T08:33:39;25.70;95.20
23715;DHT22;12036;50.858;4.472;2022-08-04T08:36:48;25.60;95.90
23715;DHT22;12036;50.858;4.472;2022-08-04T08:41:59;25.50;96.00
23715;DHT22;12036;50.858;4.472;2022-08-04T08:58:30;25.30;97.00
23715;DHT22;12036;50.858;4.472;2022-08-04T09:01:15;25.10;97.30
23715;DHT22;12036;50.858;4.472;2022-08-04T09:07:03;24.80;97.90
23715;DHT22;12036;50.858;4.472;2022-08-04T09:10:07;24.60;98.30
23715;DHT22;12036;50.858;4.472;2022-08-04T09:12:48;24.40;99.20
23715;DHT22;12036;50.858;4.472;2022-08-04T09:15:21;24.30;99.60
23715;DHT22;12036;50.858;4.472;2022-08-04T09:17:56;24.20;99.90
23715;DHT22;12036;50.858;4.472;2022-08-04T09:20:46;24.10;99.90
23715;DHT22;12036;50.858;4.472;2022-08-04T09:23:37;24.10;99.90
23715;DHT22;12036;50.858;4.472;2022-08-04T09:26:08;23.80;99.90
23715;DHT22;12036;50.858;4.472;2022-08-04T09:28:50;23.30;99.90
23715;DHT22;12036;50.858;4.472;2022-08-04T09:31:23;23.00;99.90
23715;DHT22;12036;50.858;4.472;2022-08-04T09:34:33;22.70;99.90
23715;DHT22;12036;50.858;4.472;2022-08-04T09:37:03;22.60;99.90
23715;DHT22;12036;50.858;4.472;2022-08-04T09:40:02;22.60;99.90
23715;DHT22;12036;50.858;4.472;2022-08-04T09:42:53;22.80;99.90
23715;DHT22;12036;50.858;4.472;2022-08-04T09:48:49;23.10;99.90
23715;DHT22;12036;50.858;4.472;2022-08-04T09:51:37;23.40;99.90
23715;DHT22;12036;50.858;4.472;2022-08-04T09:54:18;23.80;99.90
23715;DHT22;12036;50.858;4.472;2022-08-04T09:56:53;24.10;99.90
23715;DHT22;12036;50.858;4.472;2022-08-04T10:02:04;24.00;99.90
23715;DHT22;12036;50.858;4.472;2022-08-04T10:04:32;24.00;99.90
23715;DHT22;12036;50.858;4.472;2022-08-04T10:07:12;24.10;99.90
23715;DHT22;12036;50.858;4.472;2022-08-04T10:16:10;24.50;99.90
23715;DHT22;12036;50.858;4.472;2022-08-04T10:29:21;29.00;94.70
23715;DHT22;12036;50.858;4.472;2022-08-04T10:32:27;29.20;93.20
23715;DHT22;12036;50.858;4.472;2022-08-04T10:37:23;28.20;94.10
23715;DHT22;12036;50.858;4.472;2022-08-04T10:40:11;27.80;94.40
23715;DHT22;12036;50.858;4.472;2022-08-04T10:43:15;27.50;94.70
23715;DHT22;12036;50.858;4.472;2022-08-04T10:49:37;27.20;96.10
23715;DHT22;12036;50.858;4.472;2022-08-04T10:52:13;27.50;95.50
23715;DHT22;12036;50.858;4.472;2022-08-04T10:55:12;27.60;95.40
23715;DHT22;12036;50.858;4.472;2022-08-04T10:57:51;27.90;94.50
23715;DHT22;12036;50.858;4.472;2022-08-04T11:00:22;28.00;94.30
23715;DHT22;12036;50.858;4.472;2022-08-04T11:03:20;28.20;93.60
23715;DHT22;12036;50.858;4.472;2022-08-04T11:05:49;28.10;94.00
23715;DHT22;12036;50.858;4.472;2022-08-04T11:08:27;28.40;94.00
23715;DHT22;12036;50.858;4.472;2022-08-04T11:13:35;29.20;91.40
23715;DHT22;12036;50.858;4.472;2022-08-04T11:16:04;29.00;90.90
23715;DHT22;12036;50.858;4.472;2022-08-04T11:18:45;28.70;91.60
23715;DHT22;12036;50.858;4.472;2022-08-04T11:21:18;28.80;92.10
23715;DHT22;12036;50.858;4.472;2022-08-04T11:23:55;29.00;91.60
23715;DHT22;12036;50.858;4.472;2022-08-04T11:26:43;29.10;91.00
23715;DHT22;12036;50.858;4.472;2022-08-04T11:31:48;29.40;90.10
23715;DHT22;12036;50.858;4.472;2022-08-04T11:34:21;29.20;90.40
23715;DHT22;12036;50.858;4.472;2022-08-04T11:37:02;28.90;90.50
23715;DHT22;12036;50.858;4.472;2022-08-04T11:49:56;27.90;91.70
23715;DHT22;12036;50.858;4.472;2022-08-04T11:52:23;27.70;92.20
23715;DHT22;12036;50.858;4.472;2022-08-04T11:54:50;27.50;93.00
23715;DHT22;12036;50.858;4.472;2022-08-04T11:57:16;27.60;93.30
23715;DHT22;12036;50.858;4.472;2022-08-04T11:59:43;27.60;93.00
23715;DHT22;12036;50.858;4.472;2022-08-04T12:04:54;28.00;92.60
23715;DHT22;12036;50.858;4.472;2022-08-04T12:12:49;28.80;91.40
23715;DHT22;12036;50.858;4.472;2022-08-04T12:18:09;28.90;90.30
23715;DHT22;12036;50.858;4.472;2022-08-04T12:20:46;29.00;90.10
23715;DHT22;12036;50.858;4.472;2022-08-04T12:23:23;29.00;90.40
23715;DHT22;12036;50.858;4.472;2022-08-04T12:25:52;29.30;89.30
23715;DHT22;12036;50.858;4.472;2022-08-04T12:28:30;29.60;89.50
23715;DHT22;12036;50.858;4.472;2022-08-04T12:31:04;29.80;86.80
23715;DHT22;12036;50.858;4.472;2022-08-04T12:33:39;30.10;86.90
23715;DHT22;12036;50.858;4.472;2022-08-04T12:36:36;30.20;85.60
23715;DHT22;12036;50.858;4.472;2022-08-04T12:39:16;30.30;85.10
23715;DHT22;12036;50.858;4.472;2022-08-04T12:44:37;30.30;85.00
23715;DHT22;12036;50.858;4.472;2022-08-04T12:47:10;30.40;82.70
23715;DHT22;12036;50.858;4.472;2022-08-04T12:49:36;30.40;83.50
23715;DHT22;12036;50.858;4.472;2022-08-04T12:52:07;30.50;82.30
23715;DHT22;12036;50.858;4.472;2022-08-04T12:54:35;30.60;82.20
23715;DHT22;12036;50.858;4.472;2022-08-04T12:57:04;30.60;81.40
23715;DHT22;12036;50.858;4.472;2022-08-04T12:59:42;30.70;81.00
23715;DHT22;12036;50.858;4.472;2022-08-04T13:02:35;30.50;81.30
23715;DHT22;12036;50.858;4.472;2022-08-04T13:04:59;30.50;81.50
23715;DHT22;12036;50.858;4.472;2022-08-04T13:07:27;30.40;80.70
23715;DHT22;12036;50.858;4.472;2022-08-04T13:10:04;30.40;82.10
23715;DHT22;12036;50.858;4.472;2022-08-04T13:12:31;30.10;81.60
23715;DHT22;12036;50.858;4.472;2022-08-04T13:15:05;30.10;82.80
23715;DHT22;12036;50.858;4.472;2022-08-04T13:17:51;30.20;82.40
23715;DHT22;12036;50.858;4.472;2022-08-04T13:20:31;30.50;81.00
23715;DHT22;12036;50.858;4.472;2022-08-04T13:22:59;30.50;81.50
23715;DHT22;12036;50.858;4.472;2022-08-04T13:25:28;30.30;82.00
23715;DHT22;12036;50.858;4.472;2022-08-04T13:27:56;30.50;81.80
23715;DHT22;12036;50.858;4.472;2022-08-04T13:30:23;30.60;81.10
23715;DHT22;12036;50.858;4.472;2022-08-04T13:32:56;30.70;80.90
23715;DHT22;12036;50.858;4.472;2022-08-04T13:35:24;30.70;81.70
23715;DHT22;12036;50.858;4.472;2022-08-04T13:37:51;30.70;80.20
23715;DHT22;12036;50.858;4.472;2022-08-04T13:40:21;30.70;80.50
23715;DHT22;12036;50.858;4.472;2022-08-04T13:42:51;30.70;80.30
23715;DHT22;12036;50.858;4.472;2022-08-04T13:45:24;30.80;80.00
23715;DHT22;12036;50.858;4.472;2022-08-04T13:47:55;30.80;79.60
23715;DHT22;12036;50.858;4.472;2022-08-04T13:50:27;30.80;79.40
23715;DHT22;12036;50.858;4.472;2022-08-04T13:52:57;30.90;77.70
23715;DHT22;12036;50.858;4.472;2022-08-04T13:55:28;30.80;76.70
23715;DHT22;12036;50.858;4.472;2022-08-04T13:58:10;30.70;76.80
23715;DHT22;12036;50.858;4.472;2022-08-04T14:00:59;30.60;77.80
23715;DHT22;12036;50.858;4.472;2022-08-04T14:06:19;30.50;78.30
23715;DHT22;12036;50.858;4.472;2022-08-04T14:08:57;30.40;78.90
23715;DHT22;12036;50.858;4.472;2022-08-04T14:11:35;30.30;78.50
23715;DHT22;12036;50.858;4.472;2022-08-04T14:14:22;30.10;79.80
23715;DHT22;12036;50.858;4.472;2022-08-04T14:17:04;30.10;79.70
23715;DHT22;12036;50.858;4.472;2022-08-04T14:27:27;30.50;79.10
23715;DHT22;12036;50.858;4.472;2022-08-04T14:29:54;30.80;79.50
23715;DHT22;12036;50.858;4.472;2022-08-04T14:32:19;30.90;78.10
23715;DHT22;12036;50.858;4.472;2022-08-04T14:34:45;30.70;77.50
23715;DHT22;12036;50.858;4.472;2022-08-04T14:37:16;30.50;77.90
23715;DHT22;12036;50.858;4.472;2022-08-04T14:39:46;30.40;78.00
23715;DHT22;12036;50.858;4.472;2022-08-04T14:42:13;30.20;78.50
23715;DHT22;12036;50.858;4.472;2022-08-04T14:44:56;30.10;79.30
23715;DHT22;12036;50.858;4.472;2022-08-04T14:47:49;30.00;79.00
23715;DHT22;12036;50.858;4.472;2022-08-04T14:50:14;29.90;79.00
23715;DHT22;12036;50.858;4.472;2022-08-04T14:52:40;29.80;79.10
23715;DHT22;12036;50.858;4.472;2022-08-04T14:55:20;29.70;78.30
23715;DHT22;12036;50.858;4.472;2022-08-04T14:57:47;29.60;78.40
23715;DHT22;12036;50.858;4.472;2022-08-04T15:00:26;29.50;79.00
23715;DHT22;12036;50.858;4.472;2022-08-04T15:02:56;29.40;79.60
23715;DHT22;12036;50.858;4.472;2022-08-04T15:05:24;29.40;79.80
23715;DHT22;12036;50.858;4.472;2022-08-04T15:07:51;29.50;79.70
23715;DHT22;12036;50.858;4.472;2022-08-04T15:10:19;29.60;78.80
23715;DHT22;12036;50.858;4.472;2022-08-04T15:12:45;29.50;78.60
23715;DHT22;12036;50.858;4.472;2022-08-04T15:15:11;29.50;77.80
23715;DHT22;12036;50.858;4.472;2022-08-04T15:17:37;29.60;78.00
23715;DHT22;12036;50.858;4.472;2022-08-04T15:20:04;29.60;77.50
23715;DHT22;12036;50.858;4.472;2022-08-04T15:22:30;29.70;77.30
23715;DHT22;12036;50.858;4.472;2022-08-04T15:24:55;29.80;77.40
23715;DHT22;12036;50.858;4.472;2022-08-04T15:27:23;29.90;76.90
23715;DHT22;12036;50.858;4.472;2022-08-04T15:29:51;29.90;76.80
23715;DHT22;12036;50.858;4.472;2022-08-04T15:32:19;29.90;76.60
23715;DHT22;12036;50.858;4.472;2022-08-04T15:34:50;30.00;77.20
23715;DHT22;12036;50.858;4.472;2022-08-04T15:37:28;30.10;77.00
23715;DHT22;12036;50.858;4.472;2022-08-04T15:40:15;30.20;76.00
23715;DHT22;12036;50.858;4.472;2022-08-04T15:45:51;30.30;76.30
23715;DHT22;12036;50.858;4.472;2022-08-04T15:53:20;30.30;76.00
23715;DHT22;12036;50.858;4.472;2022-08-04T15:55:46;30.40;75.40
23715;DHT22;12036;50.858;4.472;2022-08-04T15:58:15;30.50;75.10
23715;DHT22;12036;50.858;4.472;2022-08-04T16:08:25;30.50;75.60
23715;DHT22;12036;50.858;4.472;2022-08-04T16:10:52;30.50;75.60
23715;DHT22;12036;50.858;4.472;2022-08-04T16:13:20;30.60;75.20
23715;DHT22;12036;50.858;4.472;2022-08-04T16:15:54;30.50;75.30
23715;DHT22;12036;50.858;4.472;2022-08-04T16:18:21;30.40;76.40
23715;DHT22;12036;50.858;4.472;2022-08-04T16:21:05;30.20;75.50
23715;DHT22;12036;50.858;4.472;2022-08-04T16:32:07;29.80;76.90
23715;DHT22;12036;50.858;4.472;2022-08-04T16:34:38;29.80;75.80
23715;DHT22;12036;50.858;4.472;2022-08-04T16:37:06;29.80;76.20
23715;DHT22;12036;50.858;4.472;2022-08-04T16:39:32;29.70;76.00
23715;DHT22;12036;50.858;4.472;2022-08-04T16:41:59;29.70;76.20
23715;DHT22;12036;50.858;4.472;2022-08-04T16:44:28;29.60;75.90
23715;DHT22;12036;50.858;4.472;2022-08-04T16:46:55;29.50;76.40
23715;DHT22;12036;50.858;4.472;2022-08-04T16:49:21;29.30;76.30
23715;DHT22;12036;50.858;4.472;2022-08-04T16:51:48;29.10;76.80
23715;DHT22;12036;50.858;4.472;2022-08-04T16:54:14;29.00;77.80
23715;DHT22;12036;50.858;4.472;2022-08-04T16:56:39;29.00;77.70
23715;DHT22;12036;50.858;4.472;2022-08-04T16:59:10;29.10;77.50
23715;DHT22;12036;50.858;4.472;2022-08-04T17:01:44;29.10;77.10
23715;DHT22;12036;50.858;4.472;2022-08-04T17:04:11;29.00;76.70
23715;DHT22;12036;50.858;4.472;2022-08-04T17:06:39;28.90;76.80
23715;DHT22;12036;50.858;4.472;2022-08-04T17:09:11;28.80;76.90
23715;DHT22;12036;50.858;4.472;2022-08-04T17:11:37;28.70;76.50
23715;DHT22;12036;50.858;4.472;2022-08-04T17:14:03;28.40;77.30
23715;DHT22;12036;50.858;4.472;2022-08-04T17:16:33;28.20;77.80
23715;DHT22;12036;50.858;4.472;2022-08-04T17:18:59;28.10;78.40
23715;DHT22;12036;50.858;4.472;2022-08-04T17:21:29;27.80;79.10
23715;DHT22;12036;50.858;4.472;2022-08-04T17:23:57;27.70;79.60
23715;DHT22;12036;50.858;4.472;2022-08-04T17:26:25;27.60;79.30
23715;DHT22;12036;50.858;4.472;2022-08-04T17:28:54;27.50;79.80
23715;DHT22;12036;50.858;4.472;2022-08-04T17:31:22;27.40;80.10
23715;DHT22;12036;50.858;4.472;2022-08-04T17:33:51;27.20;80.50
23715;DHT22;12036;50.858;4.472;2022-08-04T17:36:17;27.10;80.70
23715;DHT22;12036;50.858;4.472;2022-08-04T17:39:11;27.00;81.40
23715;DHT22;12036;50.858;4.472;2022-08-04T17:41:37;27.00;81.60
23715;DHT22;12036;50.858;4.472;2022-08-04T17:44:04;26.80;81.50
23715;DHT22;12036;50.858;4.472;2022-08-04T17:46:37;26.80;81.20
23715;DHT22;12036;50.858;4.472;2022-08-04T17:51:53;26.60;81.70
23715;DHT22;12036;50.858;4.472;2022-08-04T17:56:52;26.50;81.80
23715;DHT22;12036;50.858;4.472;2022-08-04T17:59:22;26.40;81.90
23715;DHT22;12036;50.858;4.472;2022-08-04T18:01:54;26.30;81.80
23715;DHT22;12036;50.858;4.472;2022-08-04T18:06:49;26.00;82.70
23715;DHT22;12036;50.858;4.472;2022-08-04T18:09:27;25.90;83.10
23715;DHT22;12036;50.858;4.472;2022-08-04T18:12:04;25.90;83.30
23715;DHT22;12036;50.858;4.472;2022-08-04T18:17:03;25.70;84.00
23715;DHT22;12036;50.858;4.472;2022-08-04T18:19:29;25.70;83.90
23715;DHT22;12036;50.858;4.472;2022-08-04T18:21:55;25.60;83.70
23715;DHT22;12036;50.858;4.472;2022-08-04T18:24:20;25.50;84.20
23715;DHT22;12036;50.858;4.472;2022-08-04T18:26:46;25.40;84.10
23715;DHT22;12036;50.858;4.472;2022-08-04T18:29:12;25.30;84.40
23715;DHT22;12036;50.858;4.472;2022-08-04T18:31:38;25.30;84.70
23715;DHT22;12036;50.858;4.472;2022-08-04T18:34:06;25.20;84.90
23715;DHT22;12036;50.858;4.472;2022-08-04T18:36:34;25.10;84.60
23715;DHT22;12036;50.858;4.472;2022-08-04T18:39:02;25.10;84.60
23715;DHT22;12036;50.858;4.472;2022-08-04T18:41:28;25.00;84.40
23715;DHT22;12036;50.858;4.472;2022-08-04T18:43:55;24.90;84.70
23715;DHT22;12036;50.858;4.472;2022-08-04T18:46:22;24.80;85.00
23715;DHT22;12036;50.858;4.472;2022-08-04T18:48:47;24.70;84.90
23715;DHT22;12036;50.858;4.472;2022-08-04T18:51:13;24.70;84.20
23715;DHT22;12036;50.858;4.472;2022-08-04T18:53:39;24.70;84.30
23715;DHT22;12036;50.858;4.472;2022-08-04T18:56:05;24.60;83.90
23715;DHT22;12036;50.858;4.472;2022-08-04T18:58:31;24.50;84.20
23715;DHT22;12036;50.858;4.472;2022-08-04T19:00:56;24.40;84.30
23715;DHT22;12036;50.858;4.472;2022-08-04T19:03:22;24.40;84.90
23715;DHT22;12036;50.858;4.472;2022-08-04T19:05:48;24.30;85.20
23715;DHT22;12036;50.858;4.472;2022-08-04T19:08:14;24.30;85.90
23715;DHT22;12036;50.858;4.472;2022-08-04T19:10:40;24.10;87.20
23715;DHT22;12036;50.858;4.472;2022-08-04T19:13:05;23.80;89.20
23715;DHT22;12036;50.858;4.472;2022-08-04T19:15:31;23.50;90.70
23715;DHT22;12036;50.858;4.472;2022-08-04T19:17:57;23.10;91.80
23715;DHT22;12036;50.858;4.472;2022-08-04T19:20:23;22.80;92.60
23715;DHT22;12036;50.858;4.472;2022-08-04T19:22:49;22.50;95.30
23715;DHT22;12036;50.858;4.472;2022-08-04T19:25:15;22.20;97.20
23715;DHT22;12036;50.858;4.472;2022-08-04T19:27:40;22.00;98.80
23715;DHT22;12036;50.858;4.472;2022-08-04T19:30:06;21.70;99.90
23715;DHT22;12036;50.858;4.472;2022-08-04T19:32:33;21.40;99.90
23715;DHT22;12036;50.858;4.472;2022-08-04T19:34:59;21.10;99.90
23715;DHT22;12036;50.858;4.472;2022-08-04T19:37:24;20.90;99.90
23715;DHT22;12036;50.858;4.472;2022-08-04T19:39:50;20.70;99.90
23715;DHT22;12036;50.858;4.472;2022-08-04T19:42:17;20.60;99.90
23715;DHT22;12036;50.858;4.472;2022-08-04T19:44:43;20.40;99.90
23715;DHT22;12036;50.858;4.472;2022-08-04T19:47:08;20.30;99.90
23715;DHT22;12036;50.858;4.472;2022-08-04T19:49:34;20.30;99.90
23715;DHT22;12036;50.858;4.472;2022-08-04T19:52:00;20.30;99.90
23715;DHT22;12036;50.858;4.472;2022-08-04T19:54:25;20.20;99.90
23715;DHT22;12036;50.858;4.472;2022-08-04T19:56:51;20.20;99.90
23715;DHT22;12036;50.858;4.472;2022-08-04T19:59:16;20.20;99.90
23715;DHT22;12036;50.858;4.472;2022-08-04T20:01:42;20.10;99.90
23715;DHT22;12036;50.858;4.472;2022-08-04T20:04:08;20.00;99.90
23715;DHT22;12036;50.858;4.472;2022-08-04T20:06:33;19.90;99.90
23715;DHT22;12036;50.858;4.472;2022-08-04T20:08:59;19.90;99.90
23715;DHT22;12036;50.858;4.472;2022-08-04T20:11:24;19.80;99.90
23715;DHT22;12036;50.858;4.472;2022-08-04T20:13:50;19.80;99.90
23715;DHT22;12036;50.858;4.472;2022-08-04T20:16:16;19.80;99.90